Time;durP1;ratioP1;P1;durP2;ratioP2;P2;SDS_P1;SDS_P2;PMS_P1;PMS_P2;Temp;Humidity;BMP_temperature;BMP_pressure;BME280_temperature;BME280_humidity;BME280_pressure;Samples;Min_cycle;Max_cycle;Signal;HPM_P1;HPM_P2
2023/10/04 00:00:53;;;;;;;;;0.33;0.33;;;;;22.44;100.00;102330.97;2110591;27;46742;-58
2023/10/04 00:01:53;;;;;;;;;1.00;1.00;;;;;22.44;100.00;102339.97;2096547;28;46449;-58
2023/10/04 00:02:54;;;;;;;;;1.00;1.00;;;;;22.46;100.00;102334.47;2087811;28;46737;-58
2023/10/04 00:03:54;;;;;;;;;2.00;1.00;;;;;22.44;100.00;102333.66;2098300;28;46166;-58
2023/10/04 00:04:55;;;;;;;;;0.67;0.00;;;;;22.44;100.00;102333.66;2113591;27;46488;-58
2023/10/04 00:05:55;;;;;;;;;1.00;0.67;;;;;22.33;100.00;102331.44;2111464;27;46197;-60
2023/10/04 00:06:56;;;;;;;;;0.00;0.00;;;;;22.30;100.00;102334.31;2113115;27;46073;-59
2023/10/04 00:07:57;;;;;;;;;2.00;1.00;;;;;22.29;100.00;102333.44;2113515;27;46442;-59
2023/10/04 00:08:59;;;;;;;;;0.00;0.00;;;;;22.29;100.00;102337.97;2106831;27;46493;-59
2023/10/04 00:10:04;;;;;;;;;1.00;1.00;;;;;22.34;100.00;102335.91;2111861;27;46536;-60
2023/10/04 00:11:04;;;;;;;;;1.50;1.00;;;;;22.36;100.00;102327.72;2113432;27;46076;-58
2023/10/04 00:12:05;;;;;;;;;1.00;1.00;;;;;22.35;100.00;102332.25;2113698;27;46677;-60
2023/10/04 00:13:05;;;;;;;;;0.67;0.67;;;;;22.24;100.00;102326.47;2109770;27;46340;-59
2023/10/04 00:14:07;;;;;;;;;1.00;0.00;;;;;22.22;100.00;102328.34;2113617;27;45938;-59
2023/10/04 00:15:12;;;;;;;;;1.00;0.00;;;;;22.20;100.00;102330.25;2113534;27;46791;-58
2023/10/04 00:16:13;;;;;;;;;0.50;0.00;;;;;22.19;100.00;102331.19;2113061;27;46313;-58
2023/10/04 00:17:13;;;;;;;;;0.33;0.00;;;;;22.18;100.00;102330.31;2110313;27;46827;-60
2023/10/04 00:18:15;;;;;;;;;0.00;0.00;;;;;22.19;100.00;102331.19;2113830;27;46762;-59
2023/10/04 00:19:15;;;;;;;;;1.00;0.00;;;;;22.20;100.00;102324.84;2107311;27;45548;-59
2023/10/04 00:20:19;;;;;;;;;2.00;2.00;;;;;22.28;100.00;102322.69;2111035;27;46346;-61
2023/10/04 00:21:19;;;;;;;;;0.50;0.50;;;;;22.30;100.00;102329.78;2110670;27;46491;-60
2023/10/04 00:22:19;;;;;;;;;0.00;0.00;;;;;22.30;100.00;102324.34;2113707;27;47051;-60
2023/10/04 00:23:20;;;;;;;;;0.00;0.00;;;;;22.28;100.00;102328.09;2113641;27;46615;-60
2023/10/04 00:24:21;;;;;;;;;1.00;1.00;;;;;22.28;100.00;102323.56;2113645;27;46468;-58
2023/10/04 00:25:21;;;;;;;;;0.33;0.33;;;;;22.29;100.00;102321.72;2112524;27;46642;-58
2023/10/04 00:26:22;;;;;;;;;0.00;0.00;;;;;22.30;100.00;102320.78;2113988;27;46598;-60
2023/10/04 00:27:23;;;;;;;;;0.00;0.00;;;;;22.31;100.00;102318.00;2107282;27;46331;-57
2023/10/04 00:28:24;;;;;;;;;0.75;0.75;;;;;22.32;100.00;102321.59;2112890;27;46910;-60
2023/10/04 00:29:25;;;;;;;;;2.00;2.00;;;;;22.31;100.00;102320.72;2113618;27;46216;-59
2023/10/04 00:30:28;;;;;;;;;1.50;1.50;;;;;22.30;100.00;102313.53;2113683;27;46435;-61
2023/10/04 00:31:28;;;;;;;;;2.25;0.00;;;;;22.30;100.00;102318.06;2113263;27;46764;-56
2023/10/04 00:32:28;;;;;;;;;3.00;1.00;;;;;22.30;100.00;102315.38;2113479;27;46549;-57
2023/10/04 00:33:29;;;;;;;;;1.33;1.33;;;;;22.28;100.00;102315.44;2110072;27;46741;-57
2023/10/04 00:34:29;;;;;;;;;0.00;0.00;;;;;22.28;100.00;102325.38;2121590;27;46433;-58
2023/10/04 00:35:30;;;;;;;;;0.00;0.00;;;;;22.28;100.00;102322.69;2113357;27;46191;-57
2023/10/04 00:36:30;;;;;;;;;1.50;0.75;;;;;22.26;100.00;102317.34;2113606;27;47149;-57
2023/10/04 00:37:31;;;;;;;;;0.00;0.00;;;;;22.26;100.00;102320.03;2113181;27;46280;-59
2023/10/04 00:38:31;;;;;;;;;1.00;1.00;;;;;22.27;100.00;102326.34;2113598;27;46545;-60
2023/10/04 00:39:34;;;;;;;;;1.00;0.00;;;;;22.28;100.00;102319.97;2113679;27;46578;-59
2023/10/04 00:40:37;;;;;;;;;1.00;1.00;;;;;22.26;100.00;102320.03;2112092;27;46307;-57
2023/10/04 00:41:39;;;;;;;;;1.00;0.75;;;;;22.26;100.00;102317.34;2111496;27;46270;-58
2023/10/04 00:42:40;;;;;;;;;0.75;0.75;;;;;22.26;100.00;102319.16;2105864;27;46353;-57
2023/10/04 00:43:51;;;;;;;;;0.75;0.75;;;;;22.27;100.00;102318.22;2107626;27;46741;-59
2023/10/04 00:44:51;;;;;;;;;0.00;0.00;;;;;22.25;100.00;102321.00;2113749;27;45688;-62
2023/10/04 00:45:53;;;;;;;;;1.00;1.00;;;;;22.26;100.00;102320.03;2113303;27;46695;-59
2023/10/04 00:46:53;;;;;;;;;0.75;0.75;;;;;22.29;100.00;102319.03;2112327;27;46982;-58
2023/10/04 00:47:58;;;;;;;;;0.33;0.33;;;;;22.21;100.00;102323.88;2098411;28;46248;-59
2023/10/04 00:48:58;;;;;;;;;0.00;0.00;;;;;22.16;100.00;102320.53;2104617;27;46539;-59
2023/10/04 00:50:09;;;;;;;;;4.00;1.00;;;;;22.15;100.00;102322.34;2113416;27;46234;-57
2023/10/04 00:51:12;;;;;;;;;0.25;0.00;;;;;22.12;100.00;102322.50;2108588;27;46951;-59
2023/10/04 00:52:13;;;;;;;;;1.50;0.00;;;;;22.12;100.00;102327.03;2107288;27;46360;-58
2023/10/04 00:53:16;;;;;;;;;0.25;0.25;;;;;22.10;100.00;102326.19;2113355;27;46365;-58
2023/10/04 00:54:16;;;;;;;;;2.25;2.25;;;;;22.05;100.00;102323.66;2104474;28;46755;-60
2023/10/04 00:55:19;;;;;;;;;0.00;0.00;;;;;22.02;100.00;102318.41;2104300;28;46799;-55
2023/10/04 00:56:19;;;;;;;;;0.50;0.00;;;;;22.01;100.00;102324.75;2114050;27;46826;-57
2023/10/04 00:57:20;;;;;;;;;0.00;0.00;;;;;22.00;100.00;102320.31;2091460;28;46705;-58
2023/10/04 00:58:21;;;;;;;;;1.00;1.00;;;;;21.99;100.00;102326.66;2089013;28;46355;-57
2023/10/04 00:59:21;;;;;;;;;0.33;0.33;;;;;22.09;100.00;102325.31;2113455;27;46708;-57
2023/10/04 01:00:24;;;;;;;;;3.00;3.00;;;;;22.11;100.00;102326.16;2113440;27;46115;-59
2023/10/04 01:01:24;;;;;;;;;0.00;0.00;;;;;22.12;100.00;102318.91;2113621;27;46825;-59
2023/10/04 01:02:24;;;;;;;;;0.67;0.00;;;;;22.10;100.00;102312.66;2113361;27;46916;-58
2023/10/04 01:03:28;;;;;;;;;0.00;0.00;;;;;22.08;100.00;102314.56;2113149;27;46908;-56
2023/10/04 01:04:28;;;;;;;;;1.25;0.75;;;;;22.06;100.00;102322.75;2113358;27;46638;-58
2023/10/04 01:05:29;;;;;;;;;1.00;1.00;;;;;22.03;100.00;102314.75;2110730;27;46312;-58
2023/10/04 01:06:30;;;;;;;;;4.00;0.25;;;;;22.04;100.00;102314.69;2108308;27;46605;-58
2023/10/04 01:07:31;;;;;;;;;1.25;1.00;;;;;22.01;100.00;102319.34;2097816;28;46602;-58
2023/10/04 01:08:33;;;;;;;;;0.00;0.00;;;;;22.02;100.00;102315.69;2101635;28;46233;-60
2023/10/04 01:09:33;;;;;;;;;1.25;1.25;;;;;22.02;100.00;102324.69;2104484;27;46518;-60
2023/10/04 01:10:36;;;;;;;;;0.00;0.00;;;;;22.01;100.00;102322.94;2113691;27;46346;-59
2023/10/04 01:11:45;;;;;;;;;1.25;0.75;;;;;22.02;100.00;102323.81;2114601;27;46994;-57
2023/10/04 01:12:47;;;;;;;;;1.00;1.00;;;;;22.01;100.00;102328.34;2105164;27;46622;-58
2023/10/04 01:13:47;;;;;;;;;1.25;0.75;;;;;22.01;100.00;102325.63;2109616;27;46584;-56
2023/10/04 01:14:49;;;;;;;;;2.00;0.67;;;;;22.00;100.00;102332.00;2114116;27;46324;-59
2023/10/04 01:15:53;;;;;;;;;2.00;1.00;;;;;21.93;100.00;102325.06;2109609;27;46449;-59
2023/10/04 01:16:54;;;;;;;;;0.50;0.50;;;;;21.93;100.00;102325.06;2114831;27;46609;-58
2023/10/04 01:17:59;;;;;;;;;0.25;0.25;;;;;21.91;100.00;102323.41;2114841;27;46727;-59
2023/10/04 01:18:59;;;;;;;;;1.25;0.75;;;;;21.91;100.00;102329.69;2113946;27;46850;-59
2023/10/04 01:19:59;;;;;;;;;0.00;0.00;;;;;21.91;100.00;102329.69;2113758;27;46595;-56
2023/10/04 01:21:01;;;;;;;;;0.00;0.00;;;;;22.01;100.00;102325.63;2110704;27;45672;-56
2023/10/04 01:22:04;;;;;;;;;0.00;0.00;;;;;22.02;100.00;102332.78;2109930;27;46859;-59
2023/10/04 01:23:07;;;;;;;;;1.00;1.00;;;;;22.01;100.00;102328.34;2114630;27;46946;-59
2023/10/04 01:24:09;;;;;;;;;0.00;0.00;;;;;22.00;100.00;102329.28;2114816;27;46919;-59
2023/10/04 01:25:11;;;;;;;;;2.00;1.00;;;;;22.00;100.00;102328.41;2114690;27;46377;-59
2023/10/04 01:26:25;;;;;;;;;0.00;0.00;;;;;21.99;100.00;102337.47;2114925;27;46985;-59
2023/10/04 01:27:27;;;;;;;;;1.75;1.50;;;;;21.98;100.00;102339.28;2114954;27;45970;-56
2023/10/04 01:28:28;;;;;;;;;0.50;0.25;;;;;21.97;100.00;102334.81;2108732;27;46509;-60
2023/10/04 01:29:29;;;;;;;;;0.00;0.00;;;;;21.97;100.00;102342.91;2113857;27;46730;-56
2023/10/04 01:30:31;;;;;;;;;0.00;0.00;;;;;21.98;100.00;102333.00;2113530;27;46838;-59
2023/10/04 01:31:33;;;;;;;;;2.00;0.00;;;;;21.99;100.00;102332.94;2106213;28;46439;-59
2023/10/04 01:32:33;;;;;;;;;1.00;1.00;;;;;22.01;100.00;102338.28;2112571;27;46318;-60
2023/10/04 01:33:34;;;;;;;;;2.00;1.00;;;;;21.93;100.00;102335.00;2114974;27;46358;-58
2023/10/04 01:34:36;;;;;;;;;1.00;1.00;;;;;21.90;100.00;102329.75;2114946;27;46127;-59
2023/10/04 01:35:38;;;;;;;;;0.00;0.00;;;;;21.86;100.00;102329.00;2114543;27;46973;-57
2023/10/04 01:36:38;;;;;;;;;0.00;0.00;;;;;21.92;100.00;102322.44;2114920;27;46723;-59
2023/10/04 01:37:39;;;;;;;;;1.00;0.67;;;;;21.85;100.00;102326.34;2104970;28;46409;-57
2023/10/04 01:38:40;;;;;;;;;1.00;1.00;;;;;21.81;100.00;102332.84;2104707;28;46729;-57
2023/10/04 01:39:44;;;;;;;;;0.50;0.25;;;;;21.79;100.00;102332.03;2105700;28;46311;-60
2023/10/04 01:40:47;;;;;;;;;1.75;0.50;;;;;21.79;100.00;102332.91;2107300;27;46617;-58
2023/10/04 01:41:49;;;;;;;;;2.00;1.25;;;;;21.77;100.00;102334.81;2114733;27;47059;-58
2023/10/04 01:42:49;;;;;;;;;0.00;0.00;;;;;21.77;100.00;102334.81;2115077;27;46529;-56
2023/10/04 01:43:53;;;;;;;;;0.00;0.00;;;;;21.78;100.00;102324.88;2114692;27;46585;-59
2023/10/04 01:44:57;;;;;;;;;2.25;2.00;;;;;21.81;100.00;102328.31;2113486;27;46470;-58
2023/10/04 01:45:58;;;;;;;;;0.50;0.50;;;;;21.80;100.00;102325.69;2113647;27;46920;-58
2023/10/04 01:47:00;;;;;;;;;1.00;1.00;;;;;21.79;100.00;102319.41;2114347;27;46538;-58
2023/10/04 01:48:00;;;;;;;;;3.00;0.00;;;;;21.78;100.00;102314.06;2114451;27;46702;-59
2023/10/04 01:49:01;;;;;;;;;1.67;1.67;;;;;21.89;100.00;102306.38;2114721;27;46638;-59
2023/10/04 01:50:02;;;;;;;;;3.00;0.33;;;;;21.94;100.00;102312.44;2114340;27;46459;-58
2023/10/04 01:51:04;;;;;;;;;2.50;1.00;;;;;21.95;100.00;102311.50;2115205;27;46731;-59
2023/10/04 01:52:05;;;;;;;;;1.00;1.00;;;;;21.95;100.00;102306.97;2098270;28;46563;-59
2023/10/04 01:53:06;;;;;;;;;1.00;1.00;;;;;21.95;100.00;102306.09;2105916;27;46834;-58
2023/10/04 01:54:06;;;;;;;;;0.00;0.00;;;;;21.95;100.00;102306.97;2106311;28;46629;-58
2023/10/04 01:55:10;;;;;;;;;0.00;0.00;;;;;21.95;100.00;102303.38;2112363;27;46694;-57
2023/10/04 01:56:11;;;;;;;;;1.00;1.00;;;;;21.95;100.00;102301.56;2114511;27;46353;-59
2023/10/04 01:57:12;;;;;;;;;2.00;2.00;;;;;21.95;100.00;102304.25;2114779;27;46877;-56
2023/10/04 01:58:15;;;;;;;;;2.50;1.00;;;;;21.95;100.00;102298.84;2114369;27;46297;-59
2023/10/04 01:59:17;;;;;;;;;0.00;0.00;;;;;21.94;100.00;102302.50;2114734;27;46742;-59
2023/10/04 02:00:19;;;;;;;;;0.00;0.00;;;;;21.94;100.00;102299.81;2114520;27;47314;-60
2023/10/04 02:01:20;;;;;;;;;0.25;0.25;;;;;21.95;100.00;102288.03;2111191;27;46392;-57
2023/10/04 02:02:22;;;;;;;;;1.33;1.00;;;;;21.93;100.00;102294.47;2115026;27;46257;-58
2023/10/04 02:03:24;;;;;;;;;2.00;1.00;;;;;21.94;100.00;102288.13;2106448;27;46577;-59
2023/10/04 02:04:24;;;;;;;;;0.00;0.00;;;;;21.93;100.00;102289.06;2109254;27;46616;-57
2023/10/04 02:05:42;;;;;;;;;0.67;0.67;;;;;21.94;100.00;102290.81;2114755;27;46784;-58
2023/10/04 02:06:43;;;;;;;;;1.25;0.00;;;;;21.94;100.00;102283.59;2114620;27;46498;-57
2023/10/04 02:07:44;;;;;;;;;0.50;0.50;;;;;21.93;100.00;102283.66;2114682;27;46564;-58
2023/10/04 02:08:45;;;;;;;;;0.00;0.00;;;;;21.93;100.00;102287.22;2113951;27;46380;-57
2023/10/04 02:09:46;;;;;;;;;0.00;0.00;;;;;21.92;100.00;102287.31;2113841;27;45977;-58
2023/10/04 02:10:46;;;;;;;;;1.00;1.00;;;;;21.91;100.00;102291.84;2106456;27;46661;-58
2023/10/04 02:11:47;;;;;;;;;2.00;1.00;;;;;21.90;100.00;102290.09;2114649;27;46346;-58
2023/10/04 02:12:47;;;;;;;;;2.00;2.00;;;;;21.91;100.00;102283.72;2114266;27;46354;-58
2023/10/04 02:13:47;;;;;;;;;0.00;0.00;;;;;21.90;100.00;102286.50;2114373;27;46777;-58
2023/10/04 02:14:48;;;;;;;;;0.33;0.33;;;;;21.87;100.00;102286.66;2114476;27;46705;-58
2023/10/04 02:15:50;;;;;;;;;2.00;1.00;;;;;21.86;100.00;102276.78;2116742;27;45263;-56
2023/10/04 02:16:52;;;;;;;;;0.50;0.00;;;;;21.85;100.00;102292.13;2112262;27;46592;-57
2023/10/04 02:17:53;;;;;;;;;1.75;1.75;;;;;21.86;100.00;102290.31;2105077;27;46625;-56
2023/10/04 02:18:54;;;;;;;;;2.00;0.75;;;;;21.83;100.00;102285.88;2108247;27;46456;-58
2023/10/04 02:19:54;;;;;;;;;1.00;1.00;;;;;21.82;100.00;102286.81;2107676;27;46635;-57
2023/10/04 02:20:54;;;;;;;;;0.00;0.00;;;;;21.82;100.00;102291.34;2111101;27;46680;-58
2023/10/04 02:21:55;;;;;;;;;0.00;0.00;;;;;21.80;100.00;102286.03;2109938;27;46384;-58
2023/10/04 02:22:56;;;;;;;;;1.00;1.00;;;;;21.81;100.00;102289.59;2115188;27;46545;-56
2023/10/04 02:23:56;;;;;;;;;1.00;1.00;;;;;21.78;100.00;102281.63;2105448;27;46473;-58
2023/10/04 02:24:57;;;;;;;;;0.00;0.00;;;;;21.78;100.00;102287.03;2105398;27;46327;-56
2023/10/04 02:25:57;;;;;;;;;1.00;1.00;;;;;21.79;100.00;102296.91;2114304;27;46831;-59
2023/10/04 02:26:58;;;;;;;;;1.00;0.00;;;;;21.77;100.00;102293.38;2113408;27;46510;-58
2023/10/04 02:28:06;;;;;;;;;1.33;0.00;;;;;21.77;100.00;102294.28;2114416;27;46381;-56
2023/10/04 02:29:09;;;;;;;;;2.00;0.00;;;;;21.79;100.00;102292.38;2105613;28;46359;-58
2023/10/04 02:30:15;;;;;;;;;0.25;0.25;;;;;21.81;100.00;102297.72;2102277;27;46897;-58
2023/10/04 02:31:16;;;;;;;;;1.00;0.00;;;;;21.79;100.00;102292.38;2107871;27;46860;-57
2023/10/04 02:32:16;;;;;;;;;0.00;0.00;;;;;21.78;100.00;102281.63;2114266;27;46422;-57
2023/10/04 02:33:17;;;;;;;;;0.33;0.33;;;;;21.78;100.00;102284.34;2114654;27;46283;-57
2023/10/04 02:34:19;;;;;;;;;0.00;0.00;;;;;21.78;100.00;102279.81;2113120;27;46685;-59
2023/10/04 02:35:26;;;;;;;;;1.75;1.75;;;;;21.84;100.00;102284.06;2110625;27;46453;-56
2023/10/04 02:36:30;;;;;;;;;2.00;1.00;;;;;21.83;100.00;102277.78;2114980;27;46858;-58
2023/10/04 02:37:30;;;;;;;;;0.00;0.00;;;;;21.85;100.00;102270.50;2114655;27;46447;-59
2023/10/04 02:38:34;;;;;;;;;1.67;1.67;;;;;21.84;100.00;102266.00;2114143;27;45646;-58
2023/10/04 02:39:37;;;;;;;;;2.75;1.25;;;;;21.85;100.00;102270.50;2114538;27;46481;-58
2023/10/04 02:40:37;;;;;;;;;0.00;0.00;;;;;21.83;100.00;102266.97;2105441;28;46396;-57
2023/10/04 02:41:38;;;;;;;;;2.33;1.00;;;;;21.83;100.00;102269.66;2109953;27;46681;-57
2023/10/04 02:42:40;;;;;;;;;2.00;2.00;;;;;21.84;100.00;102279.53;2114357;27;46511;-57
2023/10/04 02:43:42;;;;;;;;;0.00;0.00;;;;;21.85;100.00;102283.09;2114271;27;46435;-57
2023/10/04 02:44:42;;;;;;;;;1.50;1.25;;;;;21.84;100.00;102279.53;2114098;27;46495;-57
2023/10/04 02:45:43;;;;;;;;;0.00;0.00;;;;;21.84;100.00;102282.22;2111363;27;46891;-59
2023/10/04 02:46:45;;;;;;;;;2.00;0.33;;;;;21.84;100.00;102282.22;2111748;27;46681;-59
2023/10/04 02:47:48;;;;;;;;;0.00;0.00;;;;;21.84;100.00;102284.06;2109446;27;47020;-59
2023/10/04 02:48:48;;;;;;;;;2.50;1.25;;;;;21.83;100.00;102279.59;2105379;28;46956;-56
2023/10/04 02:49:49;;;;;;;;;1.00;0.00;;;;;21.81;100.00;102282.38;2105758;27;46430;-58
2023/10/04 02:50:49;;;;;;;;;0.00;0.00;;;;;21.81;100.00;102284.19;2110800;27;46330;-59
2023/10/04 02:51:49;;;;;;;;;2.00;2.00;;;;;21.78;100.00;102278.94;2105890;28;46523;-59
2023/10/04 02:52:50;;;;;;;;;1.33;0.00;;;;;21.77;100.00;102290.69;2104477;27;46193;-58
2023/10/04 02:53:51;;;;;;;;;0.67;0.67;;;;;21.74;100.00;102287.19;2105405;27;46238;-58
2023/10/04 02:54:51;;;;;;;;;0.67;0.67;;;;;21.74;100.00;102286.31;2114323;27;46633;-58
2023/10/04 02:55:56;;;;;;;;;0.00;0.00;;;;;21.73;100.00;102290.84;2116081;27;45838;-59
2023/10/04 02:56:58;;;;;;;;;3.00;1.50;;;;;21.72;100.00;102294.47;2106554;28;46585;-59
2023/10/04 02:57:59;;;;;;;;;0.00;0.00;;;;;21.71;100.00;102295.41;2113874;27;46941;-60
2023/10/04 02:59:00;;;;;;;;;1.50;1.00;;;;;21.72;100.00;102302.59;2115458;27;46536;-56
2023/10/04 03:00:13;;;;;;;;;0.00;0.00;;;;;21.71;100.00;102299.91;2105705;28;46411;-56
2023/10/04 03:01:26;;;;;;;;;0.00;0.00;;;;;21.72;100.00;102298.97;2111528;27;46998;-57
2023/10/04 03:02:27;;;;;;;;;2.00;2.00;;;;;21.70;100.00;102295.47;2110808;27;46750;-59
2023/10/04 03:03:30;;;;;;;;;2.33;1.33;;;;;21.73;100.00;102296.25;2106047;28;46537;-59
2023/10/04 03:04:31;;;;;;;;;1.00;0.00;;;;;21.74;100.00;102302.53;2113764;27;46723;-58
2023/10/04 03:05:33;;;;;;;;;0.00;0.00;;;;;21.75;100.00;102298.88;2113643;27;46465;-58
2023/10/04 03:06:34;;;;;;;;;1.75;1.75;;;;;21.76;100.00;102299.75;2113996;27;46856;-59
2023/10/04 03:07:36;;;;;;;;;0.00;0.00;;;;;21.76;100.00;102307.84;2110621;27;46347;-57
2023/10/04 03:08:37;;;;;;;;;1.75;0.50;;;;;21.75;100.00;102306.97;2113961;27;46706;-57
2023/10/04 03:09:38;;;;;;;;;0.75;0.00;;;;;21.76;100.00;102311.44;2114680;27;46352;-59
2023/10/04 03:10:38;;;;;;;;;1.00;1.00;;;;;21.77;100.00;102305.06;2114513;27;46376;-59
2023/10/04 03:11:42;;;;;;;;;0.67;0.67;;;;;21.79;100.00;102313.13;2114127;27;46749;-58
2023/10/04 03:12:42;;;;;;;;;1.00;0.25;;;;;21.77;100.00;102305.06;2113792;27;46253;-59
2023/10/04 03:13:43;;;;;;;;;2.00;2.00;;;;;21.74;100.00;102308.81;2113293;27;46661;-57
2023/10/04 03:14:44;;;;;;;;;4.00;2.67;;;;;21.77;100.00;102306.91;2114087;27;46307;-58
2023/10/04 03:15:46;;;;;;;;;1.50;1.50;;;;;21.76;100.00;102311.44;2113995;27;47010;-59
2023/10/04 03:16:46;;;;;;;;;2.25;1.00;;;;;21.76;100.00;102315.97;2113444;27;46401;-59
2023/10/04 03:17:47;;;;;;;;;2.00;1.00;;;;;21.76;100.00;102313.25;2106380;27;46353;-57
2023/10/04 03:18:47;;;;;;;;;4.67;1.00;;;;;21.74;100.00;102313.31;2112265;27;46637;-58
2023/10/04 03:19:47;;;;;;;;;3.67;2.00;;;;;21.72;100.00;102315.19;2113357;27;46737;-59
2023/10/04 03:21:54;;;;;;;;;2.00;0.25;;;;;21.70;100.00;102312.56;2113923;27;46465;-57
2023/10/04 03:22:55;;;;;;;;;0.00;0.00;;;;;21.72;100.00;102310.69;2114034;27;46884;-59
2023/10/04 03:23:56;;;;;;;;;2.75;1.25;;;;;21.71;100.00;102303.50;2113818;27;46287;-59
2023/10/04 03:24:56;;;;;;;;;0.00;0.00;;;;;21.71;100.00;102317.00;2113780;27;46728;-58
2023/10/04 03:26:01;;;;;;;;;2.00;0.67;;;;;21.71;100.00;102311.59;2112092;27;45926;-58
2023/10/04 03:27:03;;;;;;;;;0.75;0.75;;;;;21.70;100.00;102314.38;2113771;27;46538;-59
2023/10/04 03:28:08;;;;;;;;;2.00;1.50;;;;;21.69;100.00;102308.09;2113932;27;46414;-57
2023/10/04 03:29:11;;;;;;;;;0.25;0.25;;;;;21.69;100.00;102308.09;2114473;27;46533;-58
2023/10/04 03:30:16;;;;;;;;;1.50;0.50;;;;;21.70;100.00;102306.28;2104676;28;46214;-57
2023/10/04 03:31:18;;;;;;;;;2.00;1.00;;;;;21.69;100.00;102304.53;2106118;27;46687;-60
2023/10/04 03:32:19;;;;;;;;;0.75;0.75;;;;;21.68;100.00;102300.94;2113903;27;46264;-58
2023/10/04 03:33:20;;;;;;;;;1.00;1.00;;;;;21.69;100.00;102300.00;2107544;27;46670;-58
2023/10/04 03:34:22;;;;;;;;;1.00;0.00;;;;;21.69;100.00;102307.22;2114320;27;45655;-56
2023/10/04 03:35:26;;;;;;;;;2.00;1.50;;;;;21.69;100.00;102301.81;2113989;27;46276;-57
2023/10/04 03:36:26;;;;;;;;;1.00;1.00;;;;;21.69;100.00;102296.41;2113018;27;46366;-59
2023/10/04 03:37:30;;;;;;;;;1.33;1.33;;;;;21.70;100.00;102301.75;2112772;27;46360;-58
2023/10/04 03:38:35;;;;;;;;;0.50;0.50;;;;;21.57;100.00;102296.94;2113945;27;45619;-59
2023/10/04 03:39:39;;;;;;;;;2.00;0.00;;;;;21.56;100.00;102292.47;2105054;28;46745;-59
2023/10/04 03:40:39;;;;;;;;;2.25;1.00;;;;;21.55;100.00;102293.44;2096537;28;46425;-59
2023/10/04 03:41:42;;;;;;;;;1.67;1.67;;;;;21.53;100.00;102293.50;2098723;27;46307;-57
2023/10/04 03:42:42;;;;;;;;;0.00;0.00;;;;;21.53;100.00;102284.50;2107228;27;46471;-58
2023/10/04 03:43:42;;;;;;;;;2.00;1.33;;;;;21.52;100.00;102286.34;2104917;28;46734;-59
2023/10/04 03:44:43;;;;;;;;;0.00;0.00;;;;;21.49;100.00;102289.19;2104726;27;46474;-59
2023/10/04 03:45:44;;;;;;;;;1.00;1.00;;;;;21.51;100.00;102289.09;2105550;28;46616;-58
2023/10/04 03:46:44;;;;;;;;;0.00;0.00;;;;;21.49;100.00;102289.19;2107531;27;46339;-58
2023/10/04 03:47:47;;;;;;;;;0.00;0.00;;;;;21.48;100.00;102300.06;2113783;27;46658;-58
2023/10/04 03:48:49;;;;;;;;;2.25;1.25;;;;;21.45;100.00;102290.22;2113716;27;46341;-59
2023/10/04 03:49:50;;;;;;;;;1.00;1.00;;;;;21.41;100.00;102291.31;2114221;27;45968;-57
2023/10/04 03:50:52;;;;;;;;;1.33;1.00;;;;;21.52;100.00;102288.16;2109099;27;46596;-58
2023/10/04 03:51:53;;;;;;;;;1.25;0.75;;;;;21.52;100.00;102290.88;2109265;27;46513;-58
2023/10/04 03:52:59;;;;;;;;;1.33;1.00;;;;;21.52;100.00;102296.25;2108165;27;46415;-59
2023/10/04 03:54:00;;;;;;;;;2.75;2.75;;;;;21.52;100.00;102293.56;2105279;28;46825;-58
2023/10/04 03:55:06;;;;;;;;;2.25;1.00;;;;;21.52;100.00;102288.16;2111941;27;46314;-59
2023/10/04 03:56:08;;;;;;;;;2.25;1.50;;;;;21.54;100.00;102291.69;2112631;27;46692;-59
2023/10/04 03:57:12;;;;;;;;;1.50;1.50;;;;;21.52;100.00;102290.88;2096565;28;46965;-59
2023/10/04 03:58:15;;;;;;;;;0.00;0.00;;;;;21.52;100.00;102291.75;2101289;28;46561;-59
2023/10/04 03:59:16;;;;;;;;;0.25;0.25;;;;;21.51;100.00;102292.69;2112699;27;46889;-58
2023/10/04 04:00:17;;;;;;;;;1.33;0.33;;;;;21.49;100.00;102280.19;2105939;27;46687;-57
2023/10/04 04:01:17;;;;;;;;;1.00;1.00;;;;;21.51;100.00;102284.59;2113434;27;46491;-59
2023/10/04 04:02:19;;;;;;;;;2.33;1.33;;;;;21.50;100.00;102284.66;2113124;27;46285;-59
2023/10/04 04:03:20;;;;;;;;;1.00;1.00;;;;;21.50;100.00;102292.75;2095963;28;47005;-59
2023/10/04 04:04:20;;;;;;;;;2.00;2.00;;;;;21.37;100.00;102295.09;2097148;27;46680;-60
2023/10/04 04:05:23;;;;;;;;;0.00;0.00;;;;;21.33;100.00;102291.63;2113988;27;46650;-59
2023/10/04 04:06:24;;;;;;;;;0.00;0.00;;;;;21.32;100.00;102280.88;2113505;27;46408;-55
2023/10/04 04:07:26;;;;;;;;;1.33;1.00;;;;;21.41;100.00;102289.50;2111478;27;46468;-60
2023/10/04 04:08:27;;;;;;;;;3.00;2.00;;;;;21.37;100.00;102282.47;2109319;27;46305;-57
2023/10/04 04:09:27;;;;;;;;;1.33;0.67;;;;;21.37;100.00;102289.69;2110255;27;46571;-58
2023/10/04 04:10:28;;;;;;;;;0.50;0.50;;;;;21.36;100.00;102288.81;2114008;27;45544;-58
2023/10/04 04:11:28;;;;;;;;;1.00;1.00;;;;;21.36;100.00;102287.94;2114176;27;46489;-58
2023/10/04 04:12:30;;;;;;;;;2.00;1.33;;;;;21.36;100.00;102285.25;2113317;27;46618;-57
2023/10/04 04:13:30;;;;;;;;;2.00;1.00;;;;;21.36;100.00;102294.22;2113266;27;46124;-58
2023/10/04 04:14:30;;;;;;;;;1.00;0.00;;;;;21.31;100.00;102298.03;2112817;27;46515;-60
2023/10/04 04:15:34;;;;;;;;;1.33;0.00;;;;;21.30;100.00;102290.88;2113939;27;46204;-60
2023/10/04 04:16:35;;;;;;;;;1.75;1.00;;;;;21.30;100.00;102298.97;2111966;27;46241;-59
2023/10/04 04:17:37;;;;;;;;;1.50;1.25;;;;;21.27;100.00;102294.59;2113782;27;46577;-59
2023/10/04 04:18:37;;;;;;;;;1.50;0.00;;;;;21.30;100.00;102301.69;2113574;27;46391;-59
2023/10/04 04:19:38;;;;;;;;;0.33;0.33;;;;;21.29;100.00;102306.19;2110475;27;46881;-56
2023/10/04 04:20:41;;;;;;;;;2.33;0.00;;;;;21.27;100.00;102300.00;2105882;27;46621;-58
2023/10/04 04:21:41;;;;;;;;;0.50;0.25;;;;;21.27;100.00;102300.00;2113608;27;46397;-58
2023/10/04 04:22:55;;;;;;;;;0.67;0.67;;;;;21.26;100.00;102302.75;2113430;27;46394;-60
2023/10/04 04:23:56;;;;;;;;;0.25;0.25;;;;;21.22;100.00;102304.69;2113748;27;46534;-58
2023/10/04 04:24:59;;;;;;;;;0.00;0.00;;;;;21.21;100.00;102299.31;2109642;27;45750;-57
2023/10/04 04:26:05;;;;;;;;;1.50;0.50;;;;;21.20;100.00;102302.97;2109744;27;46942;-57
2023/10/04 04:27:07;;;;;;;;;3.25;2.50;;;;;21.18;100.00;102300.31;2113675;27;46470;-58
2023/10/04 04:28:14;;;;;;;;;0.00;0.00;;;;;21.16;100.00;102305.78;2113168;27;46535;-58
2023/10/04 04:29:16;;;;;;;;;0.25;0.25;;;;;21.14;100.00;102306.81;2111663;27;46848;-60
2023/10/04 04:30:23;;;;;;;;;0.00;0.00;;;;;21.24;100.00;102307.31;2105490;28;46944;-58
2023/10/04 04:31:25;;;;;;;;;1.00;1.00;;;;;21.25;100.00;102314.47;2113901;27;47161;-56
2023/10/04 04:32:29;;;;;;;;;1.00;1.00;;;;;21.25;100.00;102314.47;2113511;27;45992;-58
2023/10/04 04:33:30;;;;;;;;;2.25;1.00;;;;;21.16;100.00;102313.00;2112271;27;46673;-58
2023/10/04 04:34:30;;;;;;;;;2.33;2.00;;;;;21.15;100.00;102313.97;2104451;28;45826;-60
2023/10/04 04:36:34;;;;;;;;;0.00;0.00;;;;;21.16;100.00;102313.00;2113900;27;46759;-58
2023/10/04 04:37:36;;;;;;;;;1.33;1.00;;;;;21.16;100.00;102303.09;2113263;27;46470;-58
2023/10/04 04:38:40;;;;;;;;;2.75;1.00;;;;;21.17;100.00;102312.06;2113800;27;46748;-59
2023/10/04 04:39:41;;;;;;;;;0.75;0.75;;;;;21.17;100.00;102301.28;2113468;27;46793;-59
2023/10/04 04:40:46;;;;;;;;;4.00;1.00;;;;;21.15;100.00;102305.84;2113221;27;46708;-59
2023/10/04 04:41:51;;;;;;;;;3.00;2.00;;;;;21.16;100.00;102310.31;2113101;27;46686;-60
2023/10/04 04:42:51;;;;;;;;;0.25;0.00;;;;;21.14;100.00;102307.69;2113886;27;46106;-56
2023/10/04 04:43:52;;;;;;;;;0.00;0.00;;;;;21.04;100.00;102305.41;2114038;27;46661;-58
2023/10/04 04:44:56;;;;;;;;;0.00;0.00;;;;;21.02;100.00;102310.88;2114150;27;46200;-59
2023/10/04 04:45:57;;;;;;;;;2.75;0.75;;;;;21.08;100.00;102309.72;2108799;27;46765;-59
2023/10/04 04:46:57;;;;;;;;;1.00;1.00;;;;;21.08;100.00;102307.03;2113207;27;46983;-59